Time;durP1;ratioP1;P1;durP2;ratioP2;P2;SDS_P1;SDS_P2;PMS_P1;PMS_P2;Temp;Humidity;BMP_temperature;BMP_pressure;BME280_temperature;BME280_humidity;BME280_pressure;Samples;Min_cycle;Max_cycle;Signal;HPM_P1;HPM_P2
2022/04/13 00:00:39;;;;;;;6.22;2.30;;;3.70;99.90;;;;;;5009461;28;20149;-77
2022/04/13 00:03:10;;;;;;;12.20;3.00;;;3.70;99.90;;;;;;5012085;28;20104;-77
2022/04/13 00:05:37;;;;;;;4.97;2.38;;;3.70;99.90;;;;;;5011511;28;20050;-78
2022/04/13 00:08:06;;;;;;;3.60;1.98;;;3.60;99.90;;;;;;5009001;28;20049;-77
2022/04/13 00:10:34;;;;;;;4.65;2.90;;;3.60;99.90;;;;;;5007019;28;20106;-79
2022/04/13 00:13:03;;;;;;;3.47;2.05;;;3.60;99.90;;;;;;5003952;28;20041;-77
2022/04/13 00:15:31;;;;;;;6.53;2.22;;;3.60;99.90;;;;;;5009860;28;20065;-78
2022/04/13 00:18:06;;;;;;;9.18;2.80;;;3.60;99.90;;;;;;5011223;28;20077;-78
2022/04/13 00:20:35;;;;;;;7.97;3.15;;;3.50;99.90;;;;;;5006563;28;20054;-78
2022/04/13 00:23:02;;;;;;;6.60;2.75;;;3.50;99.90;;;;;;5006995;28;20081;-78
2022/04/13 00:25:29;;;;;;;9.48;2.70;;;3.50;99.90;;;;;;5012778;28;20050;-78
2022/04/13 00:27:57;;;;;;;6.00;2.50;;;3.50;99.90;;;;;;5008650;28;20076;-78
2022/04/13 00:30:26;;;;;;;9.00;3.03;;;3.40;99.90;;;;;;5011448;28;20486;-78
2022/04/13 00:32:53;;;;;;;6.05;3.20;;;3.40;99.90;;;;;;5010021;28;20045;-78
2022/04/13 00:35:21;;;;;;;6.38;2.95;;;3.40;99.90;;;;;;5010420;28;20498;-78
2022/04/13 00:37:48;;;;;;;7.78;3.83;;;3.40;99.90;;;;;;5011391;28;20528;-77
2022/04/13 00:40:15;;;;;;;8.32;3.17;;;3.30;99.90;;;;;;5025735;28;20053;-77
2022/04/13 00:42:43;;;;;;;5.80;3.25;;;3.30;99.90;;;;;;5009537;28;20064;-77
2022/04/13 00:45:10;;;;;;;7.40;3.20;;;3.30;99.90;;;;;;5021333;28;20596;-77
2022/04/13 00:47:41;;;;;;;8.57;3.53;;;3.30;99.90;;;;;;5005939;28;20144;-77
2022/04/13 00:50:10;;;;;;;5.63;2.65;;;3.30;99.90;;;;;;5011001;28;20561;-78
2022/04/13 00:52:43;;;;;;;4.85;2.85;;;3.30;99.90;;;;;;5010491;28;20373;-78
2022/04/13 00:55:15;;;;;;;6.43;2.50;;;3.30;99.90;;;;;;5024850;28;20057;-78
2022/04/13 00:57:44;;;;;;;7.13;3.10;;;3.20;99.90;;;;;;5010602;28;20049;-77
2022/04/13 01:00:13;;;;;;;7.35;2.70;;;3.20;99.90;;;;;;5009658;28;20046;-77
2022/04/13 01:02:44;;;;;;;7.20;3.38;;;3.20;99.90;;;;;;5008313;28;20081;-77
2022/04/13 01:05:12;;;;;;;5.63;3.00;;;3.20;99.90;;;;;;5010752;28;20453;-77
2022/04/13 01:07:42;;;;;;;4.43;2.50;;;3.10;99.90;;;;;;5008001;28;20482;-77
2022/04/13 01:10:10;;;;;;;3.83;2.60;;;3.10;99.90;;;;;;5010853;28;20045;-78
2022/04/13 01:12:38;;;;;;;4.22;2.65;;;3.10;99.90;;;;;;5008906;28;20161;-78
2022/04/13 01:15:07;;;;;;;9.00;2.92;;;3.10;99.90;;;;;;5002023;28;20078;-78
2022/04/13 01:17:35;;;;;;;4.85;2.72;;;3.00;99.90;;;;;;5006515;28;20073;-78
2022/04/13 01:20:05;;;;;;;6.82;2.83;;;3.00;99.90;;;;;;5010030;28;20081;-78
2022/04/13 01:22:34;;;;;;;5.57;2.22;;;3.00;99.90;;;;;;5008917;28;20038;-78
2022/04/13 01:25:01;;;;;;;7.45;3.28;;;3.00;99.90;;;;;;5004851;28;20054;-78
2022/04/13 01:27:32;;;;;;;3.40;2.30;;;3.00;99.90;;;;;;5004771;28;20053;-78
2022/04/13 01:29:59;;;;;;;3.97;2.55;;;3.00;99.90;;;;;;5009390;28;20049;-78
2022/04/13 01:32:27;;;;;;;10.05;2.47;;;3.00;99.90;;;;;;5009964;28;20052;-78
2022/04/13 01:34:54;;;;;;;4.07;2.17;;;3.00;99.90;;;;;;5009133;28;20054;-79
2022/04/13 01:37:22;;;;;;;3.88;2.47;;;2.90;99.90;;;;;;5010771;28;20054;-79
2022/04/13 01:39:51;;;;;;;6.45;2.60;;;2.90;99.90;;;;;;5009735;28;20050;-79
2022/04/13 01:42:19;;;;;;;11.27;2.58;;;2.90;99.90;;;;;;5010294;28;20046;-79
2022/04/13 01:44:48;;;;;;;6.57;2.30;;;2.90;99.90;;;;;;5010285;28;20146;-78
2022/04/13 01:47:15;;;;;;;4.10;2.35;;;2.90;99.90;;;;;;5010588;28;20104;-78
2022/04/13 01:49:44;;;;;;;5.22;2.42;;;2.90;99.90;;;;;;5007999;28;20052;-78
2022/04/13 01:52:12;;;;;;;4.88;2.38;;;2.90;99.90;;;;;;5009835;28;20050;-78
2022/04/13 01:54:40;;;;;;;3.42;2.45;;;2.90;99.90;;;;;;5008882;28;20112;-78
2022/04/13 01:57:08;;;;;;;4.40;2.40;;;2.80;99.90;;;;;;5007730;28;20077;-78
2022/04/13 01:59:36;;;;;;;3.30;2.17;;;2.80;99.90;;;;;;5010479;28;20060;-77
2022/04/13 02:02:04;;;;;;;2.80;2.35;;;2.80;99.90;;;;;;5010308;28;20042;-77
2022/04/13 02:04:32;;;;;;;3.65;2.33;;;2.80;99.90;;;;;;5010282;28;20065;-78
2022/04/13 02:07:00;;;;;;;5.15;2.30;;;2.80;99.90;;;;;;5007419;28;20054;-78
2022/04/13 02:09:28;;;;;;;6.05;2.50;;;2.80;99.90;;;;;;5001619;28;20486;-78
2022/04/13 02:11:55;;;;;;;4.25;2.33;;;2.80;99.90;;;;;;5004681;28;20387;-77
2022/04/13 02:14:24;;;;;;;6.28;2.88;;;2.80;99.90;;;;;;5013407;28;20068;-77
2022/04/13 02:16:51;;;;;;;9.63;2.80;;;2.80;99.90;;;;;;5010834;28;20421;-78
2022/04/13 02:19:19;;;;;;;6.68;2.70;;;2.80;99.90;;;;;;5014176;28;20081;-77
2022/04/13 02:21:47;;;;;;;6.07;2.95;;;2.70;99.90;;;;;;5013620;28;20581;-77
2022/04/13 02:24:15;;;;;;;8.98;3.25;;;2.70;99.90;;;;;;5012179;28;20049;-77
2022/04/13 02:26:42;;;;;;;7.43;2.90;;;2.70;99.90;;;;;;5013838;28;20042;-78
2022/04/13 02:29:10;;;;;;;3.22;2.70;;;2.70;99.90;;;;;;5013582;28;20133;-78
2022/04/13 02:31:38;;;;;;;6.65;2.78;;;2.70;99.90;;;;;;5013269;28;20524;-79
2022/04/13 02:34:06;;;;;;;5.03;3.22;;;2.80;99.90;;;;;;5016647;28;20041;-78
2022/04/13 02:36:34;;;;;;;6.25;2.95;;;2.70;99.90;;;;;;5013965;28;20141;-78
2022/04/13 02:39:02;;;;;;;8.75;3.80;;;2.70;99.90;;;;;;5010633;28;20054;-78
2022/04/13 02:41:29;;;;;;;8.93;2.92;;;2.70;99.90;;;;;;5013363;28;20431;-78
2022/04/13 02:43:57;;;;;;;8.10;3.60;;;2.60;99.90;;;;;;5011597;28;20507;-78
2022/04/13 02:46:24;;;;;;;6.35;3.80;;;2.60;99.90;;;;;;4995380;28;20510;-78
2022/04/13 02:48:53;;;;;;;6.65;3.10;;;2.60;99.90;;;;;;5028673;28;20149;-79
2022/04/13 02:51:20;;;;;;;7.57;3.90;;;2.50;99.90;;;;;;5011201;28;20524;-79
2022/04/13 02:53:48;;;;;;;7.28;4.15;;;2.60;99.90;;;;;;5012120;28;20054;-79
2022/04/13 02:56:15;;;;;;;18.67;4.63;;;2.60;99.90;;;;;;5025180;28;20074;-79
2022/04/13 02:58:43;;;;;;;19.48;4.10;;;2.60;99.90;;;;;;4976828;28;20230;-79
2022/04/13 03:01:10;;;;;;;78.07;8.50;;;2.60;99.90;;;;;;5001936;28;20568;-79
2022/04/13 03:03:38;;;;;;;33.65;5.05;;;2.60;99.90;;;;;;5013411;28;20465;-79
2022/04/13 03:06:06;;;;;;;5.60;3.33;;;2.60;99.90;;;;;;5007698;28;20047;-80
2022/04/13 03:08:34;;;;;;;5.15;3.13;;;2.60;99.90;;;;;;5011677;28;20057;-80
2022/04/13 03:11:01;;;;;;;12.00;4.47;;;2.60;99.90;;;;;;5010454;28;20050;-81
2022/04/13 03:13:29;;;;;;;9.30;2.80;;;2.70;99.90;;;;;;5011660;28;20076;-81
2022/04/13 03:15:56;;;;;;;8.00;3.13;;;2.70;99.90;;;;;;5011705;28;20264;-80
2022/04/13 03:18:24;;;;;;;13.20;3.50;;;2.70;99.90;;;;;;5012105;28;20046;-79
2022/04/13 03:20:51;;;;;;;10.00;3.50;;;2.70;99.90;;;;;;5010009;28;20092;-80
2022/04/13 03:23:21;;;;;;;9.73;3.92;;;2.60;99.90;;;;;;5012750;28;20153;-80
2022/04/13 03:25:49;;;;;;;30.58;5.55;;;2.70;99.90;;;;;;5013082;28;20049;-78
2022/04/13 03:28:16;;;;;;;5.55;3.85;;;2.60;99.90;;;;;;5010502;28;20410;-78
2022/04/13 03:30:44;;;;;;;10.48;3.88;;;2.60;99.90;;;;;;5011460;28;20050;-77
2022/04/13 03:33:11;;;;;;;10.68;3.65;;;2.70;99.90;;;;;;5010979;28;20069;-78
2022/04/13 03:35:38;;;;;;;8.52;3.55;;;2.60;99.90;;;;;;4999219;28;20097;-77
2022/04/13 03:38:06;;;;;;;9.50;4.07;;;2.70;99.90;;;;;;5011442;28;20514;-78
2022/04/13 03:40:35;;;;;;;7.82;3.88;;;2.70;99.90;;;;;;5011558;28;20042;-78
2022/04/13 03:43:03;;;;;;;9.40;3.40;;;2.70;99.90;;;;;;5011955;28;20499;-78
2022/04/13 03:45:30;;;;;;;7.57;3.80;;;2.70;99.90;;;;;;4992826;28;20049;-79
2022/04/13 03:47:58;;;;;;;7.22;3.90;;;2.80;99.90;;;;;;5009950;28;20391;-76
2022/04/13 03:50:25;;;;;;;11.13;3.85;;;2.80;99.90;;;;;;5012699;28;20505;-78
2022/04/13 03:52:53;;;;;;;9.90;4.07;;;2.80;99.90;;;;;;5010548;28;20065;-79
2022/04/13 03:55:22;;;;;;;13.55;3.75;;;2.70;99.90;;;;;;5010927;28;20080;-79
2022/04/13 03:57:53;;;;;;;11.40;4.90;;;2.80;99.90;;;;;;5011334;28;20096;-79
2022/04/13 04:00:21;;;;;;;9.65;4.10;;;2.80;99.90;;;;;;5012206;28;20056;-78
2022/04/13 04:02:48;;;;;;;6.75;4.15;;;2.80;99.90;;;;;;4990875;28;20046;-78
2022/04/13 04:05:17;;;;;;;9.23;3.88;;;2.80;99.90;;;;;;5007063;28;20076;-79
2022/04/13 04:07:48;;;;;;;8.18;4.50;;;2.90;99.90;;;;;;5012165;28;20417;-79
2022/04/13 04:10:16;;;;;;;8.75;4.28;;;2.90;99.90;;;;;;5010622;28;20056;-80
2022/04/13 04:12:43;;;;;;;18.10;4.65;;;2.90;99.90;;;;;;5010390;28;20053;-79
2022/04/13 04:15:12;;;;;;;14.10;4.20;;;2.90;99.90;;;;;;5015486;28;20050;-79
2022/04/13 04:17:40;;;;;;;10.40;4.40;;;2.90;99.90;;;;;;4996924;28;20058;-80
2022/04/13 04:20:09;;;;;;;9.38;4.28;;;2.90;99.90;;;;;;5002900;28;20523;-80
2022/04/13 04:22:37;;;;;;;11.68;4.45;;;2.90;99.90;;;;;;5008883;28;20076;-80
2022/04/13 04:25:06;;;;;;;8.40;5.05;;;2.90;99.90;;;;;;5012056;28;20061;-82
2022/04/13 04:27:33;;;;;;;4.95;3.95;;;2.90;99.90;;;;;;5012282;28;20077;-79
2022/04/13 04:30:01;;;;;;;17.83;4.95;;;3.00;99.90;;;;;;5009301;28;20054;-79
2022/04/13 04:32:33;;;;;;;9.40;5.10;;;3.00;99.90;;;;;;5024705;28;20060;-81
2022/04/13 04:35:00;;;;;;;8.98;5.13;;;3.00;99.90;;;;;;5010752;28;20470;-79
2022/04/13 04:37:28;;;;;;;22.55;6.10;;;3.00;99.90;;;;;;5012293;28;20143;-79
2022/04/13 04:39:55;;;;;;;13.52;4.45;;;3.10;99.90;;;;;;5015052;28;20076;-81
2022/04/13 04:42:23;;;;;;;14.07;4.32;;;3.10;99.90;;;;;;5011879;28;20038;-81
2022/04/13 04:44:57;;;;;;;13.43;5.00;;;3.10;99.90;;;;;;5009773;28;20053;-81
2022/04/13 04:47:25;;;;;;;5.97;4.07;;;3.20;99.90;;;;;;5026210;28;20097;-80
2022/04/13 04:50:26;;;;;;;7.15;3.80;;;3.30;99.90;;;;;;5009683;28;20049;-80
2022/04/13 04:53:11;;;;;;;11.07;4.45;;;3.30;99.90;;;;;;5023152;28;20071;-80
2022/04/13 04:55:44;;;;;;;11.48;5.05;;;3.30;99.90;;;;;;5025162;28;20045;-82
2022/04/13 04:58:12;;;;;;;16.65;4.70;;;3.30;99.90;;;;;;5010453;28;20045;-79
2022/04/13 05:00:39;;;;;;;13.57;5.32;;;3.40;99.90;;;;;;5011121;28;20044;-80
2022/04/13 05:03:08;;;;;;;12.32;4.88;;;3.40;99.90;;;;;;4995875;28;20053;-79
2022/04/13 05:05:39;;;;;;;9.77;4.00;;;3.40;99.90;;;;;;5017077;28;20805;-77
2022/04/13 05:08:08;;;;;;;15.10;5.30;;;3.40;99.90;;;;;;5017075;28;20053;-79
2022/04/13 05:10:35;;;;;;;11.07;4.93;;;3.50;99.90;;;;;;5011138;28;20141;-80
2022/04/13 05:13:03;;;;;;;18.55;5.13;;;3.50;99.90;;;;;;4989931;28;20043;-81
2022/04/13 05:15:30;;;;;;;18.88;4.70;;;3.60;99.90;;;;;;4989567;28;20053;-78
2022/04/13 05:17:58;;;;;;;8.90;4.95;;;3.70;99.90;;;;;;5006157;28;20449;-81
2022/04/13 05:20:26;;;;;;;15.52;4.63;;;3.80;99.90;;;;;;4990633;28;20402;-81
2022/04/13 05:22:54;;;;;;;14.48;4.82;;;3.80;99.90;;;;;;5036005;28;20083;-78
2022/04/13 05:25:22;;;;;;;9.80;5.40;;;3.90;99.90;;;;;;5010405;28;20151;-77
2022/04/13 05:27:50;;;;;;;19.88;5.25;;;3.90;99.90;;;;;;5006488;28;20054;-78
2022/04/13 05:30:17;;;;;;;15.23;5.50;;;4.00;99.90;;;;;;5005663;28;20529;-79
2022/04/13 05:32:56;;;;;;;12.80;5.63;;;4.00;99.90;;;;;;5003960;28;20045;-78
2022/04/13 05:35:25;;;;;;;15.45;4.20;;;4.20;99.90;;;;;;4985457;28;20523;-78
2022/04/13 05:37:57;;;;;;;16.65;4.20;;;4.40;99.90;;;;;;4989990;28;20073;-78
2022/04/13 05:40:26;;;;;;;7.93;4.32;;;5.00;99.90;;;;;;5006015;28;20049;-80
2022/04/13 05:42:53;;;;;;;9.80;4.35;;;5.60;99.90;;;;;;5009030;28;20046;-78
2022/04/13 05:45:24;;;;;;;8.38;4.03;;;6.40;99.90;;;;;;5023965;28;20064;-79
2022/04/13 05:47:52;;;;;;;13.15;4.13;;;7.20;99.90;;;;;;4998668;28;20069;-79
2022/04/13 05:50:20;;;;;;;13.02;4.20;;;7.90;99.90;;;;;;5021544;28;20203;-77
2022/04/13 05:52:47;;;;;;;13.40;4.05;;;8.40;99.90;;;;;;4999550;28;20069;-79
2022/04/13 05:55:16;;;;;;;18.00;3.47;;;9.00;99.90;;;;;;5013552;28;20049;-78
2022/04/13 05:57:44;;;;;;;19.92;3.65;;;9.60;99.90;;;;;;4994974;28;20076;-78
2022/04/13 06:00:14;;;;;;;9.68;3.40;;;10.10;99.90;;;;;;5010683;28;20173;-78
2022/04/13 06:02:42;;;;;;;11.27;4.32;;;10.50;99.90;;;;;;5024589;28;20136;-78
2022/04/13 06:05:11;;;;;;;15.13;3.67;;;10.80;99.90;;;;;;4994678;28;20145;-79
2022/04/13 06:07:40;;;;;;;13.73;3.50;;;11.20;99.90;;;;;;5012204;28;20056;-75
2022/04/13 06:10:12;;;;;;;13.68;3.38;;;11.50;99.90;;;;;;5013436;28;20049;-76
2022/04/13 06:12:41;;;;;;;12.90;3.75;;;11.80;99.90;;;;;;5022707;28;20489;-75
2022/04/13 06:15:10;;;;;;;13.50;3.42;;;12.10;99.90;;;;;;5033764;28;20136;-76
2022/04/13 06:17:38;;;;;;;16.23;3.90;;;12.50;98.80;;;;;;5010344;28;20057;-77
2022/04/13 06:20:08;;;;;;;21.08;3.85;;;12.70;94.70;;;;;;5008676;28;20077;-77
2022/04/13 06:22:39;;;;;;;19.23;4.03;;;12.80;93.00;;;;;;5018590;28;20053;-76
2022/04/13 06:25:08;;;;;;;18.15;4.10;;;13.00;91.70;;;;;;5005300;28;20061;-77
2022/04/13 06:27:36;;;;;;;13.77;3.92;;;13.20;90.70;;;;;;4998732;28;20427;-75
2022/04/13 06:30:07;;;;;;;18.77;4.65;;;13.40;86.60;;;;;;5013329;28;20045;-74
2022/04/13 06:32:35;;;;;;;16.30;4.55;;;13.60;86.30;;;;;;4994635;28;20089;-76
2022/04/13 06:35:06;;;;;;;19.80;4.63;;;13.90;82.40;;;;;;4995765;28;20046;-76
2022/04/13 06:37:35;;;;;;;14.75;4.40;;;14.30;79.80;;;;;;5002697;28;20049;-76
2022/04/13 06:40:02;;;;;;;22.35;5.72;;;14.50;78.10;;;;;;5020670;28;20573;-77
2022/04/13 06:42:33;;;;;;;19.13;6.30;;;14.60;75.90;;;;;;5006568;28;20084;-76
2022/04/13 06:45:01;;;;;;;19.23;4.18;;;14.80;74.80;;;;;;5002536;28;20045;-76
2022/04/13 06:47:32;;;;;;;10.23;3.92;;;15.10;72.30;;;;;;5005160;28;20054;-78
2022/04/13 06:49:59;;;;;;;16.58;4.75;;;15.30;70.70;;;;;;5004828;28;20402;-77
2022/04/13 06:52:27;;;;;;;15.88;4.57;;;15.60;69.00;;;;;;5007348;28;20085;-77
2022/04/13 06:54:58;;;;;;;22.10;4.43;;;15.70;67.90;;;;;;5009210;28;20073;-77
2022/04/13 06:57:25;;;;;;;15.15;4.05;;;15.90;67.10;;;;;;4998506;28;20081;-76
2022/04/13 06:59:53;;;;;;;15.50;4.22;;;16.10;66.00;;;;;;5009489;28;20184;-77
2022/04/13 07:02:20;;;;;;;24.25;4.35;;;16.40;65.00;;;;;;5007581;28;20061;-79
2022/04/13 07:04:49;;;;;;;17.50;4.40;;;16.80;63.70;;;;;;5015396;28;20050;-79
2022/04/13 07:07:17;;;;;;;18.17;3.75;;;16.90;62.20;;;;;;5013335;28;20085;-80
2022/04/13 07:09:44;;;;;;;15.48;4.50;;;17.30;60.30;;;;;;5011984;28;20141;-79
2022/04/13 07:12:11;;;;;;;18.25;4.32;;;17.00;60.70;;;;;;5003237;28;20056;-79
2022/04/13 07:14:41;;;;;;;21.65;5.10;;;16.60;61.30;;;;;;5033025;28;20042;-79
2022/04/13 07:17:09;;;;;;;28.17;4.22;;;16.60;61.90;;;;;;5010825;28;20128;-79
2022/04/13 07:19:37;;;;;;;24.67;5.30;;;16.90;61.20;;;;;;5012060;28;20045;-79
2022/04/13 07:22:06;;;;;;;27.58;5.55;;;17.10;61.00;;;;;;5013810;28;20576;-79
2022/04/13 07:24:34;;;;;;;17.05;5.35;;;17.50;59.70;;;;;;5014166;28;20148;-79
2022/04/13 07:27:02;;;;;;;18.15;5.10;;;17.60;58.60;;;;;;5010137;28;20085;-78
2022/04/13 07:29:29;;;;;;;17.88;5.63;;;17.50;58.40;;;;;;5010582;28;20048;-78
2022/04/13 07:31:59;;;;;;;28.50;5.70;;;17.40;58.80;;;;;;5010898;28;20048;-79
2022/04/13 07:34:27;;;;;;;20.35;5.68;;;17.40;58.80;;;;;;5012917;28;20095;-78
2022/04/13 07:36:54;;;;;;;19.15;5.80;;;17.70;58.00;;;;;;5010676;28;20124;-78
2022/04/13 07:39:23;;;;;;;21.85;6.35;;;17.60;57.80;;;;;;5004014;28;20071;-80
2022/04/13 07:41:53;;;;;;;14.68;5.85;;;17.80;57.70;;;;;;4993392;28;20093;-81
2022/04/13 07:44:21;;;;;;;21.55;6.90;;;17.90;56.90;;;;;;5012389;28;20100;-79
2022/04/13 07:46:49;;;;;;;16.38;7.40;;;18.00;56.90;;;;;;4991055;28;20082;-80
2022/04/13 07:49:17;;;;;;;16.65;6.50;;;18.20;56.60;;;;;;4992401;28;20368;-79
2022/04/13 07:51:47;;;;;;;20.38;6.97;;;18.40;55.60;;;;;;5007153;28;20396;-78
2022/04/13 07:54:16;;;;;;;19.90;6.53;;;18.60;55.00;;;;;;5014518;28;20141;-78
2022/04/13 07:56:45;;;;;;;20.70;6.97;;;19.20;54.40;;;;;;5003109;28;20081;-78
2022/04/13 07:59:12;;;;;;;17.15;5.68;;;19.50;53.40;;;;;;4992091;28;20054;-78
2022/04/13 08:01:40;;;;;;;24.13;6.20;;;19.70;52.70;;;;;;5016255;28;20088;-79
2022/04/13 08:04:11;;;;;;;13.15;5.90;;;19.90;52.10;;;;;;5011506;28;20050;-79
2022/04/13 08:06:39;;;;;;;15.10;5.45;;;20.30;51.50;;;;;;5011122;28;20140;-80
2022/04/13 08:09:06;;;;;;;16.33;5.05;;;20.40;50.80;;;;;;5011837;28;20048;-80
2022/04/13 08:11:34;;;;;;;17.00;5.55;;;20.60;50.60;;;;;;5001190;28;20057;-80
2022/04/13 08:14:03;;;;;;;11.23;4.95;;;20.70;50.10;;;;;;5019365;28;20055;-81
2022/04/13 08:16:30;;;;;;;13.57;4.78;;;20.70;49.60;;;;;;5020256;28;20050;-80
2022/04/13 08:18:58;;;;;;;11.90;4.53;;;20.70;50.30;;;;;;5006318;28;20057;-78
2022/04/13 08:21:25;;;;;;;12.30;4.72;;;20.50;49.80;;;;;;4992164;28;20066;-78
2022/04/13 08:23:53;;;;;;;15.18;4.85;;;20.70;49.60;;;;;;4995200;28;20037;-79
2022/04/13 08:26:20;;;;;;;12.45;3.70;;;20.80;49.70;;;;;;5009950;28;20395;-79
2022/04/13 08:28:47;;;;;;;15.02;4.82;;;21.20;48.40;;;;;;5002179;28;20038;-79
2022/04/13 08:31:18;;;;;;;10.65;4.68;;;21.50;48.20;;;;;;4951270;28;20113;-80
2022/04/13 08:33:47;;;;;;;15.07;4.57;;;21.30;47.90;;;;;;5001567;28;20429;-80
2022/04/13 08:36:16;;;;;;;14.90;5.00;;;21.20;48.00;;;;;;5003742;28;20042;-81
2022/04/13 08:38:44;;;;;;;17.65;5.68;;;21.60;47.60;;;;;;5008929;28;20046;-80
2022/04/13 08:41:16;;;;;;;23.23;4.90;;;21.70;47.40;;;;;;5011623;28;20055;-79
2022/04/13 08:43:48;;;;;;;14.07;4.00;;;21.70;47.20;;;;;;5007538;28;20053;-77
2022/04/13 08:46:23;;;;;;;13.07;3.78;;;22.00;46.80;;;;;;5002622;28;20100;-81
2022/04/13 08:48:55;;;;;;;12.23;4.03;;;22.50;45.90;;;;;;4991977;28;20163;-82
2022/04/13 08:51:24;;;;;;;22.77;3.93;;;22.80;46.30;;;;;;4991415;28;20096;-79
2022/04/13 08:54:05;;;;;;;19.90;3.70;;;23.10;45.00;;;;;;5004441;28;20053;-80
2022/04/13 08:56:36;;;;;;;14.35;3.30;;;23.10;44.40;;;;;;5000476;28;20076;-79
2022/04/13 08:59:14;;;;;;;14.43;3.13;;;23.30;44.20;;;;;;5009020;28;20057;-81
2022/04/13 09:02:07;;;;;;;12.68;3.03;;;23.50;43.90;;;;;;4999577;28;20054;-79
2022/04/13 09:04:43;;;;;;;10.52;3.05;;;23.50;43.50;;;;;;5008617;28;20057;-79
2022/04/13 09:07:14;;;;;;;17.40;3.35;;;23.50;43.50;;;;;;5008594;28;20050;-79
2022/04/13 09:09:46;;;;;;;15.68;2.90;;;23.80;43.40;;;;;;5010902;28;20051;-78
2022/04/13 09:12:15;;;;;;;11.45;2.58;;;23.80;42.70;;;;;;4995248;28;20054;-78
2022/04/13 09:14:44;;;;;;;13.52;3.05;;;24.00;42.50;;;;;;5029224;28;20548;-77
2022/04/13 09:17:13;;;;;;;14.55;3.05;;;24.40;42.90;;;;;;5010356;28;20057;-78
2022/04/13 09:19:43;;;;;;;13.20;2.22;;;24.50;42.00;;;;;;5010675;28;20058;-77
2022/04/13 09:22:11;;;;;;;12.13;1.88;;;24.30;41.00;;;;;;5004417;28;20049;-76
2022/04/13 09:24:39;;;;;;;11.52;2.13;;;24.40;41.40;;;;;;5010485;28;20042;-78
2022/04/13 09:27:09;;;;;;;12.48;2.95;;;24.50;40.80;;;;;;5006973;28;20104;-77
2022/04/13 09:29:37;;;;;;;17.25;2.38;;;24.30;40.80;;;;;;5024195;28;20410;-76
2022/04/13 09:32:06;;;;;;;8.07;1.92;;;24.80;39.90;;;;;;5009011;28;20046;-77
2022/04/13 09:34:35;;;;;;;10.77;1.88;;;24.90;39.70;;;;;;5009406;28;20126;-77
2022/04/13 09:37:05;;;;;;;9.88;1.65;;;24.90;39.50;;;;;;4995315;28;20057;-81
2022/04/13 09:39:39;;;;;;;9.02;2.40;;;25.10;39.10;;;;;;5006322;28;20052;-82
2022/04/13 09:42:07;;;;;;;9.55;2.42;;;25.20;39.10;;;;;;5003446;28;20399;-82
2022/04/13 09:44:34;;;;;;;10.13;2.25;;;25.10;39.20;;;;;;5009475;28;20034;-81
2022/04/13 09:47:10;;;;;;;12.07;2.85;;;24.90;39.10;;;;;;4995920;28;20061;-82
2022/04/13 09:49:46;;;;;;;7.90;2.05;;;24.70;39.50;;;;;;4999544;28;20050;-81
2022/04/13 09:52:16;;;;;;;14.48;2.42;;;24.40;39.30;;;;;;4994565;28;20082;-82
2022/04/13 09:54:47;;;;;;;5.93;1.60;;;23.90;40.00;;;;;;5002905;28;20057;-80
2022/04/13 09:57:22;;;;;;;10.65;2.25;;;23.50;40.10;;;;;;5008792;28;20057;-80
2022/04/13 09:59:56;;;;;;;15.23;1.95;;;23.40;40.70;;;;;;4989096;28;20543;-79
2022/04/13 10:02:44;;;;;;;12.90;1.90;;;23.50;40.30;;;;;;4990917;28;20055;-80
2022/04/13 10:05:23;;;;;;;5.85;1.95;;;24.10;39.90;;;;;;5009000;28;20140;-78
2022/04/13 10:08:02;;;;;;;16.63;2.30;;;24.70;38.80;;;;;;5001824;28;20052;-79
2022/04/13 10:10:33;;;;;;;7.32;1.35;;;25.00;38.60;;;;;;5027751;28;20053;-79
2022/04/13 10:13:01;;;;;;;12.88;2.10;;;25.60;37.60;;;;;;5015418;28;20050;-79
2022/04/13 10:15:28;;;;;;;7.40;1.70;;;25.70;37.70;;;;;;5027038;28;20056;-80
2022/04/13 10:18:00;;;;;;;9.35;1.90;;;25.70;37.40;;;;;;5007379;28;20054;-78
2022/04/13 10:20:48;;;;;;;9.60;1.55;;;25.70;37.50;;;;;;5007303;28;20085;-79
2022/04/13 10:23:16;;;;;;;7.47;1.60;;;25.80;36.50;;;;;;5010973;28;20451;-79
2022/04/13 10:25:44;;;;;;;3.90;0.80;;;26.10;36.30;;;;;;5009367;28;20447;-79
2022/04/13 10:28:13;;;;;;;7.45;1.00;;;25.90;35.70;;;;;;5009706;28;20061;-79
2022/04/13 10:30:42;;;;;;;2.60;1.00;;;25.90;36.10;;;;;;5010262;28;20093;-78
2022/04/13 10:33:13;;;;;;;1.70;0.60;;;26.10;35.60;;;;;;5011621;28;20050;-77
2022/04/13 10:35:44;;;;;;;6.60;0.87;;;26.40;35.20;;;;;;5010930;28;20054;-77
2022/04/13 10:38:15;;;;;;;5.40;1.15;;;26.60;35.00;;;;;;4992739;28;20585;-78
2022/04/13 10:40:44;;;;;;;4.45;1.00;;;26.80;35.10;;;;;;4994531;28;20058;-79
2022/04/13 10:46:23;;;;;;;8.05;0.70;;;27.10;34.30;;;;;;5061050;23;20061;-78
2022/04/13 10:48:55;;;;;;;7.00;0.90;;;26.60;34.60;;;;;;5013832;28;20061;-78
2022/04/13 10:51:32;;;;;;;3.97;0.60;;;25.30;35.00;;;;;;5007165;28;20049;-80
2022/04/13 10:54:03;;;;;;;9.82;0.80;;;24.60;36.30;;;;;;5013613;28;20062;-80
2022/04/13 10:56:33;;;;;;;8.43;0.80;;;24.30;36.90;;;;;;5011994;28;20396;-80
2022/04/13 10:59:10;;;;;;;5.05;0.90;;;24.10;37.20;;;;;;5008630;28;20054;-80
2022/04/13 11:01:45;;;;;;;5.03;0.93;;;23.80;37.30;;;;;;5011765;28;20046;-78
2022/04/13 11:04:13;;;;;;;33.75;1.95;;;23.80;37.50;;;;;;5011029;28;20058;-77
2022/04/13 11:06:43;;;;;;;1.77;0.63;;;24.00;36.90;;;;;;5010677;28;20080;-79
2022/04/13 11:09:20;;;;;;;4.57;0.65;;;23.90;36.80;;;;;;5012601;28;20050;-78
2022/04/13 11:11:50;;;;;;;4.20;0.60;;;24.30;37.00;;;;;;5011909;28;20077;-77
2022/04/13 11:14:22;;;;;;;4.22;0.40;;;25.10;36.20;;;;;;5024391;28;20124;-77
2022/04/13 11:16:54;;;;;;;4.97;0.70;;;25.50;35.50;;;;;;5011133;28;20084;-77
2022/04/13 11:19:21;;;;;;;4.03;0.60;;;26.00;35.00;;;;;;5009675;28;20061;-76
2022/04/13 11:22:15;;;;;;;5.10;1.02;;;26.40;34.50;;;;;;5012098;28;20562;-76
2022/04/13 11:24:56;;;;;;;6.47;0.77;;;27.00;34.10;;;;;;5011738;28;20064;-76
2022/04/13 11:27:25;;;;;;;1.95;0.57;;;27.40;33.30;;;;;;4998746;28;20105;-78
2022/04/13 11:30:01;;;;;;;1.52;0.88;;;27.60;32.40;;;;;;5008897;28;20046;-76
2022/04/13 11:32:33;;;;;;;3.08;0.70;;;27.60;32.60;;;;;;5012497;28;20467;-76
2022/04/13 11:35:03;;;;;;;11.10;1.60;;;27.90;32.60;;;;;;5012514;28;20050;-78
2022/04/13 11:37:45;;;;;;;5.30;1.70;;;28.20;32.60;;;;;;5011380;28;20144;-78
2022/04/13 11:40:14;;;;;;;5.00;1.52;;;28.40;32.20;;;;;;5012454;28;20508;-76
2022/04/13 11:43:04;;;;;;;1.98;0.82;;;28.40;31.90;;;;;;5011367;28;20054;-77
2022/04/13 11:45:33;;;;;;;2.88;0.88;;;28.20;31.80;;;;;;5011698;28;20042;-75
2022/04/13 11:48:03;;;;;;;4.88;0.80;;;28.30;32.10;;;;;;5006334;28;20069;-77
2022/04/13 11:50:33;;;;;;;5.63;0.50;;;28.40;31.10;;;;;;5005069;28;20140;-75
2022/04/13 11:53:06;;;;;;;3.80;0.80;;;28.80;30.70;;;;;;5011555;28;20034;-74
2022/04/13 11:55:43;;;;;;;3.55;0.60;;;29.10;30.70;;;;;;5011931;28;20050;-76
2022/04/13 11:58:25;;;;;;;3.90;1.02;;;29.50;31.00;;;;;;5005433;28;20050;-77
2022/04/13 12:01:03;;;;;;;7.97;1.10;;;29.50;30.90;;;;;;5012114;28;20081;-77
2022/04/13 12:03:32;;;;;;;7.00;1.05;;;29.40;30.80;;;;;;5001271;28;20130;-76
2022/04/13 12:06:02;;;;;;;3.97;1.42;;;29.40;30.20;;;;;;5010435;28;20061;-77
2022/04/13 12:08:35;;;;;;;4.00;0.75;;;29.20;30.00;;;;;;4992338;28;20046;-78
2022/04/13 12:11:06;;;;;;;3.63;0.70;;;29.10;30.20;;;;;;5008344;28;20533;-77
2022/04/13 12:13:51;;;;;;;5.43;0.60;;;29.00;29.90;;;;;;5011421;28;20060;-76
2022/04/13 12:16:21;;;;;;;4.68;0.68;;;29.30;29.70;;;;;;5011605;28;20058;-77
2022/04/13 12:18:50;;;;;;;5.28;0.60;;;29.50;29.50;;;;;;5012066;28;20054;-77
2022/04/13 12:21:22;;;;;;;3.22;0.93;;;29.50;29.30;;;;;;5009858;28;20052;-77
2022/04/13 12:23:53;;;;;;;2.67;1.48;;;29.50;29.70;;;;;;5010536;28;20417;-77
2022/04/13 12:26:31;;;;;;;5.63;1.27;;;29.60;29.70;;;;;;5011886;28;20509;-77
2022/04/13 12:28:59;;;;;;;5.10;0.90;;;29.60;29.80;;;;;;5009572;28;20413;-77
2022/04/13 12:31:27;;;;;;;11.07;1.35;;;29.70;29.60;;;;;;5010092;28;20104;-78
2022/04/13 12:34:04;;;;;;;4.88;1.27;;;29.70;29.60;;;;;;5005305;28;20073;-78
2022/04/13 12:36:31;;;;;;;4.75;0.77;;;29.90;29.90;;;;;;5002866;28;20140;-80
2022/04/13 12:39:00;;;;;;;4.68;0.82;;;30.00;29.80;;;;;;5003895;28;20069;-79
2022/04/13 12:41:30;;;;;;;2.28;0.45;;;29.90;29.30;;;;;;5001671;28;20046;-81
2022/04/13 12:44:00;;;;;;;1.90;0.75;;;29.90;29.00;;;;;;5008962;28;20123;-80
2022/04/13 12:46:29;;;;;;;6.03;0.70;;;29.90;29.20;;;;;;5009169;28;20046;-79
2022/04/13 12:49:00;;;;;;;6.97;1.13;;;30.00;28.50;;;;;;5011759;28;20074;-78
2022/04/13 12:51:32;;;;;;;5.65;1.00;;;30.00;28.50;;;;;;4993376;28;20568;-78
2022/04/13 12:54:03;;;;;;;7.60;1.05;;;30.00;28.60;;;;;;5001155;28;20164;-76
2022/04/13 12:56:33;;;;;;;8.52;1.17;;;29.80;28.90;;;;;;5001590;28;20053;-84
2022/04/13 12:59:01;;;;;;;11.35;1.20;;;29.70;29.00;;;;;;5011694;28;20066;-77
2022/04/13 13:01:34;;;;;;;10.15;1.48;;;29.60;29.00;;;;;;5004264;28;20049;-78
2022/04/13 13:04:13;;;;;;;7.60;1.17;;;29.80;29.10;;;;;;4989792;28;20054;-76